sensor_id;sensor_type;location;lat;lon;timestamp;pressure;altitude;pressure_sealevel;temperature;humidity
49841;BME280;35738;49.890;5.930;2022-09-20T00:01:13;96354.63;;;8.16;91.26
49841;BME280;35738;49.890;5.930;2022-09-20T00:03:44;96353.59;;;8.12;91.63
49841;BME280;35738;49.890;5.930;2022-09-20T00:06:13;96356.94;;;8.09;91.53
49841;BME280;35738;49.890;5.930;2022-09-20T00:08:41;96347.50;;;8.01;91.93
49841;BME280;35738;49.890;5.930;2022-09-20T00:11:10;96344.53;;;7.97;92.49
49841;BME280;35738;49.890;5.930;2022-09-20T00:13:39;96349.50;;;7.95;92.61
49841;BME280;35738;49.890;5.930;2022-09-20T00:16:07;96353.38;;;7.94;93.57
49841;BME280;35738;49.890;5.930;2022-09-20T00:18:35;96348.47;;;7.91;92.36
49841;BME280;35738;49.890;5.930;2022-09-20T00:21:03;96351.94;;;7.97;92.74
49841;BME280;35738;49.890;5.930;2022-09-20T00:23:31;96347.59;;;7.96;93.43
49841;BME280;35738;49.890;5.930;2022-09-20T00:26:02;96349.50;;;7.95;93.29
49841;BME280;35738;49.890;5.930;2022-09-20T00:28:30;96343.53;;;7.93;93.42
49841;BME280;35738;49.890;5.930;2022-09-20T00:30:57;96347.06;;;7.94;93.53
49841;BME280;35738;49.890;5.930;2022-09-20T00:33:24;96355.00;;;7.95;93.30
49841;BME280;35738;49.890;5.930;2022-09-20T00:36:14;96357.41;;;7.97;94.17
49841;BME280;35738;49.890;5.930;2022-09-20T00:38:41;96347.50;;;8.01;93.69
49841;BME280;35738;49.890;5.930;2022-09-20T00:41:13;96354.59;;;8.02;93.37
49841;BME280;35738;49.890;5.930;2022-09-20T00:43:43;96345.44;;;7.93;92.95
49841;BME280;35738;49.890;5.930;2022-09-20T00:48:47;96340.97;;;7.83;94.43
49841;BME280;35738;49.890;5.930;2022-09-20T00:51:21;96348.56;;;7.86;94.25
49841;BME280;35738;49.890;5.930;2022-09-20T00:53:50;96344.72;;;7.87;93.98
49841;BME280;35738;49.890;5.930;2022-09-20T00:56:21;96343.81;;;7.92;94.70
49841;BME280;35738;49.890;5.930;2022-09-20T01:01:39;96343.91;;;7.87;94.51
49841;BME280;35738;49.890;5.930;2022-09-20T01:04:06;96341.78;;;7.84;94.59
49841;BME280;35738;49.890;5.930;2022-09-20T01:06:34;96335.19;;;7.85;94.45
49841;BME280;35738;49.890;5.930;2022-09-20T01:09:04;96341.25;;;7.82;94.66
49841;BME280;35738;49.890;5.930;2022-09-20T01:11:33;96344.72;;;7.87;94.66
49841;BME280;35738;49.890;5.930;2022-09-20T01:14:00;96347.47;;;7.87;94.91
49841;BME280;35738;49.890;5.930;2022-09-20T01:16:28;96336.50;;;7.87;94.49
49841;BME280;35738;49.890;5.930;2022-09-20T01:18:57;96339.63;;;7.81;94.94
49841;BME280;35738;49.890;5.930;2022-09-20T01:21:27;96333.88;;;7.82;95.28
49841;BME280;35738;49.890;5.930;2022-09-20T01:27:22;96336.28;;;7.84;95.26
49841;BME280;35738;49.890;5.930;2022-09-20T01:32:37;96330.00;;;7.83;95.45
49841;BME280;35738;49.890;5.930;2022-09-20T01:35:08;96336.91;;;7.81;96.02
49841;BME280;35738;49.890;5.930;2022-09-20T01:40:50;96337.19;;;7.79;95.96
49841;BME280;35738;49.890;5.930;2022-09-20T01:43:33;96339.94;;;7.79;96.58
49841;BME280;35738;49.890;5.930;2022-09-20T01:48:46;96340.44;;;7.81;95.90
49841;BME280;35738;49.890;5.930;2022-09-20T02:22:05;96329.75;;;7.66;98.33
49841;BME280;35738;49.890;5.930;2022-09-20T02:24:52;96328.47;;;7.77;98.12
49841;BME280;35738;49.890;5.930;2022-09-20T02:33:48;96325.13;;;7.80;98.01
49841;BME280;35738;49.890;5.930;2022-09-20T02:39:10;96335.78;;;7.82;96.84
49841;BME280;35738;49.890;5.930;2022-09-20T02:42:28;96337.91;;;7.85;97.81
49841;BME280;35738;49.890;5.930;2022-09-20T02:45:13;96326.16;;;7.84;97.19
49841;BME280;35738;49.890;5.930;2022-09-20T02:47:43;96332.25;;;7.81;97.10
49841;BME280;35738;49.890;5.930;2022-09-20T03:01:34;96326.34;;;7.74;97.53
49841;BME280;35738;49.890;5.930;2022-09-20T03:10:21;96329.47;;;7.68;97.42
49841;BME280;35738;49.890;5.930;2022-09-20T03:27:52;96337.34;;;7.55;98.00
49841;BME280;35738;49.890;5.930;2022-09-20T03:30:27;96332.16;;;7.54;98.11
49841;BME280;35738;49.890;5.930;2022-09-20T03:33:15;96328.69;;;7.48;99.50
49841;BME280;35738;49.890;5.930;2022-09-20T03:35:52;96333.66;;;7.46;100.00
49841;BME280;35738;49.890;5.930;2022-09-20T03:38:42;96327.28;;;7.51;99.46
49841;BME280;35738;49.890;5.930;2022-09-20T03:47:02;96330.81;;;7.32;100.00
49841;BME280;35738;49.890;5.930;2022-09-20T03:52:25;96337.06;;;7.19;100.00
49841;BME280;35738;49.890;5.930;2022-09-20T04:03:37;96332.19;;;7.16;100.00
49841;BME280;35738;49.890;5.930;2022-09-20T04:11:47;96337.66;;;7.16;100.00
49841;BME280;35738;49.890;5.930;2022-09-20T04:14:38;96333.22;;;7.20;100.00
49841;BME280;35738;49.890;5.930;2022-09-20T04:22:29;96330.09;;;7.46;100.00
49841;BME280;35738;49.890;5.930;2022-09-20T04:25:04;96321.22;;;7.54;100.00
49841;BME280;35738;49.890;5.930;2022-09-20T04:30:25;96329.94;;;7.56;100.00
49841;BME280;35738;49.890;5.930;2022-09-20T04:38:41;96326.69;;;7.54;100.00
49841;BME280;35738;49.890;5.930;2022-09-20T04:44:15;96323.34;;;7.57;100.00
49841;BME280;35738;49.890;5.930;2022-09-20T05:01:22;96338.75;;;7.53;100.00
49841;BME280;35738;49.890;5.930;2022-09-20T05:31:14;96368.38;;;7.64;100.00
49841;BME280;35738;49.890;5.930;2022-09-20T05:34:18;96367.28;;;7.65;99.37
49841;BME280;35738;49.890;5.930;2022-09-20T05:39:37;96378.53;;;7.64;99.56
49841;BME280;35738;49.890;5.930;2022-09-20T05:42:39;96381.69;;;7.71;99.85
49841;BME280;35738;49.890;5.930;2022-09-20T05:48:35;96387.09;;;7.76;99.40
49841;BME280;35738;49.890;5.930;2022-09-20T05:51:32;96385.97;;;7.77;98.95
49841;BME280;35738;49.890;5.930;2022-09-20T05:54:06;96386.50;;;7.79;99.79
49841;BME280;35738;49.890;5.930;2022-09-20T05:59:23;96386.63;;;7.88;99.47
49841;BME280;35738;49.890;5.930;2022-09-20T06:02:19;96382.47;;;7.90;99.11
49841;BME280;35738;49.890;5.930;2022-09-20T06:05:28;96386.63;;;7.88;99.69
49841;BME280;35738;49.890;5.930;2022-09-20T06:08:14;96392.31;;;7.91;99.12
49841;BME280;35738;49.890;5.930;2022-09-20T06:15:59;96398.03;;;8.09;99.21
49841;BME280;35738;49.890;5.930;2022-09-20T06:18:37;96404.03;;;8.11;98.25
49841;BME280;35738;49.890;5.930;2022-09-20T06:26:55;96405.78;;;8.20;97.89
49841;BME280;35738;49.890;5.930;2022-09-20T06:29:30;96404.69;;;8.21;97.78
49841;BME280;35738;49.890;5.930;2022-09-20T06:31:59;96402.34;;;8.28;97.58
49841;BME280;35738;49.890;5.930;2022-09-20T06:34:27;96402.16;;;8.25;98.06
49841;BME280;35738;49.890;5.930;2022-09-20T06:37:03;96408.66;;;8.29;97.79
49841;BME280;35738;49.890;5.930;2022-09-20T06:42:42;96406.38;;;8.36;97.99
49841;BME280;35738;49.890;5.930;2022-09-20T06:45:10;96406.88;;;8.38;97.38
49841;BME280;35738;49.890;5.930;2022-09-20T06:47:37;96408.72;;;8.43;96.71
49841;BME280;35738;49.890;5.930;2022-09-20T06:50:06;96408.91;;;8.46;96.84
49841;BME280;35738;49.890;5.930;2022-09-20T06:52:33;96406.88;;;8.52;96.61
49841;BME280;35738;49.890;5.930;2022-09-20T06:55:01;96406.69;;;8.48;97.09
49841;BME280;35738;49.890;5.930;2022-09-20T06:57:36;96407.91;;;8.56;96.59
49841;BME280;35738;49.890;5.930;2022-09-20T07:00:06;96410.84;;;8.59;96.76
49841;BME280;35738;49.890;5.930;2022-09-20T07:02:38;96410.84;;;8.59;96.81
49841;BME280;35738;49.890;5.930;2022-09-20T07:05:12;96416.03;;;8.61;96.23
49841;BME280;35738;49.890;5.930;2022-09-20T07:07:41;96414.19;;;8.56;96.80
49841;BME280;35738;49.890;5.930;2022-09-20T07:10:12;96417.03;;;8.51;96.93
49841;BME280;35738;49.890;5.930;2022-09-20T07:12:40;96411.75;;;8.55;96.78
49841;BME280;35738;49.890;5.930;2022-09-20T07:15:07;96415.91;;;8.52;97.19
49841;BME280;35738;49.890;5.930;2022-09-20T07:17:34;96430.44;;;8.67;96.62
49841;BME280;35738;49.890;5.930;2022-09-20T07:20:01;96421.09;;;8.68;96.96
49841;BME280;35738;49.890;5.930;2022-09-20T07:22:28;96418.66;;;8.66;96.08
49841;BME280;35738;49.890;5.930;2022-09-20T07:24:55;96422.22;;;8.67;96.80
49841;BME280;35738;49.890;5.930;2022-09-20T07:27:21;96426.81;;;8.71;96.85
49841;BME280;35738;49.890;5.930;2022-09-20T07:29:54;96416.03;;;8.75;97.02
49841;BME280;35738;49.890;5.930;2022-09-20T07:32:21;96423.44;;;8.74;96.74
49841;BME280;35738;49.890;5.930;2022-09-20T07:34:49;96430.16;;;8.82;97.40
49841;BME280;35738;49.890;5.930;2022-09-20T07:37:16;96420.41;;;8.89;97.12
49841;BME280;35738;49.890;5.930;2022-09-20T07:39:44;96418.28;;;9.00;95.75
49841;BME280;35738;49.890;5.930;2022-09-20T07:42:12;96421.09;;;9.22;95.79
49841;BME280;35738;49.890;5.930;2022-09-20T07:44:39;96416.19;;;9.33;94.80
49841;BME280;35738;49.890;5.930;2022-09-20T07:47:10;96415.59;;;9.36;93.77
49841;BME280;35738;49.890;5.930;2022-09-20T07:49:37;96416.56;;;9.54;92.07
49841;BME280;35738;49.890;5.930;2022-09-20T07:52:04;96420.22;;;9.85;91.74
49841;BME280;35738;49.890;5.930;2022-09-20T07:54:31;96419.72;;;9.83;91.44
49841;BME280;35738;49.890;5.930;2022-09-20T07:56:58;96429.34;;;9.95;90.42
49841;BME280;35738;49.890;5.930;2022-09-20T07:59:25;96427.47;;;9.81;89.34
49841;BME280;35738;49.890;5.930;2022-09-20T08:01:52;96436.22;;;9.83;89.31
49841;BME280;35738;49.890;5.930;2022-09-20T08:04:19;96426.03;;;9.84;89.29
49841;BME280;35738;49.890;5.930;2022-09-20T08:06:45;96439.84;;;9.93;90.04
49841;BME280;35738;49.890;5.930;2022-09-20T08:09:12;96438.47;;;9.81;88.56
49841;BME280;35738;49.890;5.930;2022-09-20T08:11:41;96440.03;;;9.96;89.18
49841;BME280;35738;49.890;5.930;2022-09-20T08:14:13;96440.78;;;10.10;88.32
49841;BME280;35738;49.890;5.930;2022-09-20T08:16:43;96437.97;;;10.02;87.62
49841;BME280;35738;49.890;5.930;2022-09-20T08:19:18;96456.09;;;10.03;87.92
49841;BME280;35738;49.890;5.930;2022-09-20T08:21:48;96449.53;;;9.90;88.67
49841;BME280;35738;49.890;5.930;2022-09-20T08:24:16;96457.25;;;9.88;88.61
49841;BME280;35738;49.890;5.930;2022-09-20T08:26:43;96450.22;;;9.96;89.07
49841;BME280;35738;49.890;5.930;2022-09-20T08:29:11;96456.22;;;9.98;89.70
49841;BME280;35738;49.890;5.930;2022-09-20T08:31:40;96446.00;;;9.76;89.54
49841;BME280;35738;49.890;5.930;2022-09-20T08:34:10;96452.81;;;9.78;90.45
49841;BME280;35738;49.890;5.930;2022-09-20T08:36:42;96451.19;;;9.77;91.75
49841;BME280;35738;49.890;5.930;2022-09-20T08:39:13;96460.88;;;9.75;92.56
49841;BME280;35738;49.890;5.930;2022-09-20T08:42:27;96467.78;;;9.72;92.88
49841;BME280;35738;49.890;5.930;2022-09-20T08:45:04;96467.69;;;9.77;93.79
49841;BME280;35738;49.890;5.930;2022-09-20T08:47:38;96467.38;;;9.79;92.88
49841;BME280;35738;49.890;5.930;2022-09-20T08:50:10;96465.25;;;9.98;92.28
49841;BME280;35738;49.890;5.930;2022-09-20T08:52:45;96463.72;;;10.28;92.09
49841;BME280;35738;49.890;5.930;2022-09-20T08:55:20;96464.59;;;10.15;89.48
49841;BME280;35738;49.890;5.930;2022-09-20T08:57:55;96461.25;;;10.40;88.83
49841;BME280;35738;49.890;5.930;2022-09-20T09:00:30;96468.97;;;10.61;88.71
49841;BME280;35738;49.890;5.930;2022-09-20T09:03:18;96463.84;;;10.68;87.87
49841;BME280;35738;49.890;5.930;2022-09-20T09:08:17;96464.28;;;10.92;85.53
49841;BME280;35738;49.890;5.930;2022-09-20T09:10:47;96462.56;;;11.13;84.47
49841;BME280;35738;49.890;5.930;2022-09-20T09:16:30;96458.31;;;11.47;82.77
49841;BME280;35738;49.890;5.930;2022-09-20T09:22:03;96463.84;;;11.07;84.12
49841;BME280;35738;49.890;5.930;2022-09-20T09:24:32;96463.88;;;10.76;84.51
49841;BME280;35738;49.890;5.930;2022-09-20T09:27:14;96463.03;;;10.67;84.37
49841;BME280;35738;49.890;5.930;2022-09-20T09:29:52;96464.97;;;10.67;85.97
49841;BME280;35738;49.890;5.930;2022-09-20T09:32:29;96466.31;;;10.47;85.05
49841;BME280;35738;49.890;5.930;2022-09-20T09:35:29;96471.09;;;10.64;86.58
49841;BME280;35738;49.890;5.930;2022-09-20T09:38:00;96462.84;;;10.64;85.07
49841;BME280;35738;49.890;5.930;2022-09-20T09:40:29;96468.94;;;10.83;84.97
49841;BME280;35738;49.890;5.930;2022-09-20T09:42:59;96471.44;;;11.02;84.92
49841;BME280;35738;49.890;5.930;2022-09-20T09:45:38;96465.91;;;10.93;81.47
49841;BME280;35738;49.890;5.930;2022-09-20T09:48:18;96469.41;;;10.85;82.15
49841;BME280;35738;49.890;5.930;2022-09-20T09:50:46;96467.47;;;10.86;81.48
49841;BME280;35738;49.890;5.930;2022-09-20T09:53:21;96466.75;;;10.71;80.83
49841;BME280;35738;49.890;5.930;2022-09-20T10:04:18;96459.13;;;10.99;79.95
49841;BME280;35738;49.890;5.930;2022-09-20T10:06:56;96459.81;;;10.74;80.36
49841;BME280;35738;49.890;5.930;2022-09-20T10:09:51;96464.06;;;10.80;80.35
49841;BME280;35738;49.890;5.930;2022-09-20T10:15:28;96459.00;;;11.13;79.05
49841;BME280;35738;49.890;5.930;2022-09-20T10:21:58;96458.88;;;11.18;78.30
49841;BME280;35738;49.890;5.930;2022-09-20T10:29:28;96450.25;;;11.76;74.42
49841;BME280;35738;49.890;5.930;2022-09-20T10:40:15;96436.09;;;13.20;67.56
49841;BME280;35738;49.890;5.930;2022-09-20T10:43:00;96439.06;;;13.06;66.44
49841;BME280;35738;49.890;5.930;2022-09-20T10:46:11;96431.72;;;13.10;66.82
49841;BME280;35738;49.890;5.930;2022-09-20T10:49:20;96438.72;;;12.52;67.27
49841;BME280;35738;49.890;5.930;2022-09-20T10:57:47;96435.88;;;11.97;68.14
49841;BME280;35738;49.890;5.930;2022-09-20T11:08:48;96447.06;;;12.26;69.16
49841;BME280;35738;49.890;5.930;2022-09-20T11:11:25;96442.00;;;12.46;69.95
49841;BME280;35738;49.890;5.930;2022-09-20T11:16:38;96450.31;;;12.92;68.03
49841;BME280;35738;49.890;5.930;2022-09-20T11:19:25;96450.72;;;13.12;68.13
49841;BME280;35738;49.890;5.930;2022-09-20T11:22:20;96443.28;;;13.50;65.69
49841;BME280;35738;49.890;5.930;2022-09-20T11:25:13;96439.97;;;13.57;60.06
49841;BME280;35738;49.890;5.930;2022-09-20T11:28:14;96448.81;;;13.71;61.10
49841;BME280;35738;49.890;5.930;2022-09-20T11:33:28;96443.97;;;13.68;60.59
49841;BME280;35738;49.890;5.930;2022-09-20T11:36:00;96448.28;;;13.78;61.78
49841;BME280;35738;49.890;5.930;2022-09-20T11:38:47;96456.44;;;13.74;62.21
49841;BME280;35738;49.890;5.930;2022-09-20T11:41:25;96449.56;;;13.59;60.85
49841;BME280;35738;49.890;5.930;2022-09-20T11:44:01;96452.72;;;13.49;62.61
49841;BME280;35738;49.890;5.930;2022-09-20T11:46:38;96452.47;;;13.63;61.95
49841;BME280;35738;49.890;5.930;2022-09-20T11:49:14;96450.84;;;14.04;61.19
49841;BME280;35738;49.890;5.930;2022-09-20T11:57:23;96452.06;;;14.36;57.12
49841;BME280;35738;49.890;5.930;2022-09-20T11:59:55;96449.56;;;14.01;58.54
49841;BME280;35738;49.890;5.930;2022-09-20T12:05:03;96459.09;;;13.41;58.03
49841;BME280;35738;49.890;5.930;2022-09-20T12:07:33;96447.31;;;13.53;60.68
49841;BME280;35738;49.890;5.930;2022-09-20T12:10:06;96455.19;;;13.42;57.82
49841;BME280;35738;49.890;5.930;2022-09-20T12:12:47;96461.78;;;13.12;59.36
49841;BME280;35738;49.890;5.930;2022-09-20T12:15:33;96459.63;;;13.26;62.13
49841;BME280;35738;49.890;5.930;2022-09-20T12:26:10;96450.44;;;12.40;64.92
49841;BME280;35738;49.890;5.930;2022-09-20T12:28:44;96458.72;;;12.32;65.67
49841;BME280;35738;49.890;5.930;2022-09-20T12:33:58;96463.13;;;12.07;68.94
49841;BME280;35738;49.890;5.930;2022-09-20T12:36:28;96459.03;;;11.78;69.22
49841;BME280;35738;49.890;5.930;2022-09-20T12:41:48;96465.91;;;11.33;74.41
49841;BME280;35738;49.890;5.930;2022-09-20T12:52:50;96462.19;;;11.46;73.00
49841;BME280;35738;49.890;5.930;2022-09-20T12:55:29;96463.81;;;11.47;73.55
49841;BME280;35738;49.890;5.930;2022-09-20T13:00:41;96453.00;;;11.59;69.88
49841;BME280;35738;49.890;5.930;2022-09-20T13:05:44;96453.72;;;11.91;66.75
49841;BME280;35738;49.890;5.930;2022-09-20T13:08:18;96448.38;;;12.03;65.91
49841;BME280;35738;49.890;5.930;2022-09-20T13:13:51;96450.13;;;12.25;66.81
49841;BME280;35738;49.890;5.930;2022-09-20T13:16:23;96444.28;;;12.35;65.63
49841;BME280;35738;49.890;5.930;2022-09-20T13:19:03;96447.66;;;12.58;65.29
49841;BME280;35738;49.890;5.930;2022-09-20T13:21:35;96451.91;;;12.38;64.31
49841;BME280;35738;49.890;5.930;2022-09-20T13:24:04;96441.19;;;12.36;64.47
49841;BME280;35738;49.890;5.930;2022-09-20T13:26:39;96446.06;;;12.31;64.39
49841;BME280;35738;49.890;5.930;2022-09-20T13:29:08;96437.13;;;12.43;64.70
49841;BME280;35738;49.890;5.930;2022-09-20T13:31:44;96434.22;;;12.39;63.38
49841;BME280;35738;49.890;5.930;2022-09-20T13:34:19;96441.81;;;12.68;65.16
49841;BME280;35738;49.890;5.930;2022-09-20T13:36:46;96440.03;;;12.55;64.80
49841;BME280;35738;49.890;5.930;2022-09-20T13:39:37;96437.09;;;12.60;64.16
49841;BME280;35738;49.890;5.930;2022-09-20T13:42:10;96438.97;;;12.85;65.31
49841;BME280;35738;49.890;5.930;2022-09-20T13:44:38;96432.19;;;12.83;64.74
49841;BME280;35738;49.890;5.930;2022-09-20T13:49:48;96435.16;;;12.69;63.97
49841;BME280;35738;49.890;5.930;2022-09-20T13:52:24;96437.09;;;12.68;64.86
49841;BME280;35738;49.890;5.930;2022-09-20T13:54:52;96427.22;;;13.05;64.67
49841;BME280;35738;49.890;5.930;2022-09-20T13:57:26;96428.91;;;12.89;63.22
49841;BME280;35738;49.890;5.930;2022-09-20T13:59:55;96421.97;;;13.13;63.64
49841;BME280;35738;49.890;5.930;2022-09-20T14:02:31;96425.00;;;13.28;61.73
49841;BME280;35738;49.890;5.930;2022-09-20T14:05:02;96420.25;;;13.38;61.69
49841;BME280;35738;49.890;5.930;2022-09-20T14:07:31;96425.91;;;13.71;61.60
49841;BME280;35738;49.890;5.930;2022-09-20T14:09:59;96427.88;;;13.91;62.17
49841;BME280;35738;49.890;5.930;2022-09-20T14:12:26;96426.97;;;13.28;61.04
49841;BME280;35738;49.890;5.930;2022-09-20T14:14:53;96428.31;;;12.75;62.55
49841;BME280;35738;49.890;5.930;2022-09-20T14:17:21;96429.66;;;12.52;63.57
49841;BME280;35738;49.890;5.930;2022-09-20T14:19:53;96435.03;;;12.39;64.67
49841;BME280;35738;49.890;5.930;2022-09-20T14:22:27;96428.22;;;12.28;66.16
49841;BME280;35738;49.890;5.930;2022-09-20T14:25:20;96426.13;;;12.17;67.00
49841;BME280;35738;49.890;5.930;2022-09-20T14:28:16;96427.63;;;11.97;66.09
49841;BME280;35738;49.890;5.930;2022-09-20T14:30:50;96431.16;;;11.89;67.84
49841;BME280;35738;49.890;5.930;2022-09-20T14:33:29;96422.56;;;11.82;67.89
49841;BME280;35738;49.890;5.930;2022-09-20T14:35:58;96419.00;;;11.81;67.61
49841;BME280;35738;49.890;5.930;2022-09-20T14:38:26;96413.66;;;11.85;68.12
49841;BME280;35738;49.890;5.930;2022-09-20T14:40:57;96424.03;;;11.88;68.04
49841;BME280;35738;49.890;5.930;2022-09-20T14:43:34;96420.13;;;11.89;68.69
49841;BME280;35738;49.890;5.930;2022-09-20T14:46:12;96416.25;;;11.81;68.61
49841;BME280;35738;49.890;5.930;2022-09-20T14:48:41;96414.94;;;11.78;66.99
49841;BME280;35738;49.890;5.930;2022-09-20T14:53:45;96409.28;;;11.84;67.34
49841;BME280;35738;49.890;5.930;2022-09-20T14:56:26;96415.13;;;11.91;67.25
49841;BME280;35738;49.890;5.930;2022-09-20T14:59:06;96413.69;;;11.93;68.09
49841;BME280;35738;49.890;5.930;2022-09-20T15:01:58;96414.16;;;12.04;67.87
49841;BME280;35738;49.890;5.930;2022-09-20T15:04:27;96419.03;;;12.07;67.18
49841;BME280;35738;49.890;5.930;2022-09-20T15:06:55;96403.75;;;12.18;67.78
49841;BME280;35738;49.890;5.930;2022-09-20T15:09:22;96418.19;;;12.24;65.58
49841;BME280;35738;49.890;5.930;2022-09-20T15:12:03;96415.59;;;12.27;65.83
49841;BME280;35738;49.890;5.930;2022-09-20T15:14:30;96418.34;;;12.27;66.99
49841;BME280;35738;49.890;5.930;2022-09-20T15:17:05;96415.75;;;12.31;65.73
49841;BME280;35738;49.890;5.930;2022-09-20T15:19:33;96418.03;;;12.20;66.16
49841;BME280;35738;49.890;5.930;2022-09-20T15:21:59;96411.88;;;12.15;67.11
49841;BME280;35738;49.890;5.930;2022-09-20T15:24:26;96410.41;;;12.26;66.50
49841;BME280;35738;49.890;5.930;2022-09-20T15:26:53;96421.91;;;12.19;66.77
49841;BME280;35738;49.890;5.930;2022-09-20T15:29:20;96406.03;;;12.16;67.45
49841;BME280;35738;49.890;5.930;2022-09-20T15:31:47;96407.00;;;12.20;66.17
49841;BME280;35738;49.890;5.930;2022-09-20T15:34:14;96407.50;;;12.05;67.71
49841;BME280;35738;49.890;5.930;2022-09-20T15:36:42;96410.41;;;12.08;66.40
49841;BME280;35738;49.890;5.930;2022-09-20T15:39:08;96409.28;;;12.09;67.10
49841;BME280;35738;49.890;5.930;2022-09-20T15:41:35;96404.75;;;12.05;66.70
49841;BME280;35738;49.890;5.930;2022-09-20T15:44:03;96404.91;;;12.08;66.80
49841;BME280;35738;49.890;5.930;2022-09-20T15:46:30;96409.44;;;12.04;67.15
49841;BME280;35738;49.890;5.930;2022-09-20T15:48:59;96403.59;;;11.89;68.54
49841;BME280;35738;49.890;5.930;2022-09-20T15:51:28;96405.06;;;11.86;69.65
49841;BME280;35738;49.890;5.930;2022-09-20T15:54:01;96407.00;;;11.86;67.97
49841;BME280;35738;49.890;5.930;2022-09-20T15:56:31;96407.66;;;11.83;68.74
49841;BME280;35738;49.890;5.930;2022-09-20T15:59:03;96410.91;;;11.85;69.10
49841;BME280;35738;49.890;5.930;2022-09-20T16:01:35;96410.56;;;11.86;68.66
49841;BME280;35738;49.890;5.930;2022-09-20T16:04:05;96419.81;;;11.82;68.63
49841;BME280;35738;49.890;5.930;2022-09-20T16:06:33;96417.69;;;11.78;67.69
49841;BME280;35738;49.890;5.930;2022-09-20T16:09:00;96416.09;;;11.77;67.69
49841;BME280;35738;49.890;5.930;2022-09-20T16:11:28;96421.59;;;11.77;67.69
49841;BME280;35738;49.890;5.930;2022-09-20T16:13:59;96420.94;;;11.81;68.93
49841;BME280;35738;49.890;5.930;2022-09-20T16:16:29;96420.59;;;11.73;67.99
49841;BME280;35738;49.890;5.930;2022-09-20T16:18:56;96416.84;;;11.69;68.21
49841;BME280;35738;49.890;5.930;2022-09-20T16:21:44;96424.16;;;11.65;68.85
49841;BME280;35738;49.890;5.930;2022-09-20T16:24:12;96420.41;;;11.61;67.83
49841;BME280;35738;49.890;5.930;2022-09-20T16:26:40;96425.44;;;11.68;66.76
49841;BME280;35738;49.890;5.930;2022-09-20T16:29:07;96420.75;;;11.68;66.23
49841;BME280;35738;49.890;5.930;2022-09-20T16:31:39;96430.16;;;11.67;65.27
49841;BME280;35738;49.890;5.930;2022-09-20T16:34:20;96428.38;;;11.71;67.49
49841;BME280;35738;49.890;5.930;2022-09-20T16:36:52;96436.31;;;11.64;67.35
49841;BME280;35738;49.890;5.930;2022-09-20T16:39:24;96435.97;;;11.66;66.75
49841;BME280;35738;49.890;5.930;2022-09-20T16:42:05;96438.41;;;11.67;68.02
49841;BME280;35738;49.890;5.930;2022-09-20T16:44:38;96445.06;;;11.66;67.58
49841;BME280;35738;49.890;5.930;2022-09-20T16:47:13;96443.59;;;11.60;67.15
49841;BME280;35738;49.890;5.930;2022-09-20T16:49:48;96441.63;;;11.52;68.38
49841;BME280;35738;49.890;5.930;2022-09-20T16:52:17;96440.97;;;11.46;67.53
49841;BME280;35738;49.890;5.930;2022-09-20T16:54:45;96446.97;;;11.49;68.35
49841;BME280;35738;49.890;5.930;2022-09-20T16:57:12;96447.13;;;11.43;67.69
49841;BME280;35738;49.890;5.930;2022-09-20T16:59:50;96449.41;;;11.41;68.67
49841;BME280;35738;49.890;5.930;2022-09-20T17:02:23;96449.72;;;11.40;68.14
49841;BME280;35738;49.890;5.930;2022-09-20T17:04:50;96455.66;;;11.25;69.14
49841;BME280;35738;49.890;5.930;2022-09-20T17:07:17;96452.28;;;11.28;69.92
49841;BME280;35738;49.890;5.930;2022-09-20T17:09:44;96460.53;;;11.28;71.40
49841;BME280;35738;49.890;5.930;2022-09-20T17:12:14;96465.56;;;11.26;70.11
49841;BME280;35738;49.890;5.930;2022-09-20T17:14:51;96462.13;;;11.20;70.22
49841;BME280;35738;49.890;5.930;2022-09-20T17:17:18;96465.69;;;11.21;70.93
49841;BME280;35738;49.890;5.930;2022-09-20T17:19:47;96464.19;;;11.14;69.95
49841;BME280;35738;49.890;5.930;2022-09-20T17:22:13;96464.34;;;11.09;69.90
49841;BME280;35738;49.890;5.930;2022-09-20T17:24:40;96461.69;;;10.96;70.88
49841;BME280;35738;49.890;5.930;2022-09-20T17:27:13;96461.25;;;11.02;71.33
49841;BME280;35738;49.890;5.930;2022-09-20T17:29:39;96467.88;;;11.01;70.26
49841;BME280;35738;49.890;5.930;2022-09-20T17:32:09;96468.38;;;11.03;70.78
49841;BME280;35738;49.890;5.930;2022-09-20T17:34:36;96468.50;;;10.98;71.27
49841;BME280;35738;49.890;5.930;2022-09-20T17:37:05;96468.00;;;10.96;71.03
49841;BME280;35738;49.890;5.930;2022-09-20T17:39:32;96471.91;;;10.95;72.38
49841;BME280;35738;49.890;5.930;2022-09-20T17:41:59;96473.97;;;10.90;72.40
49841;BME280;35738;49.890;5.930;2022-09-20T17:44:27;96482.88;;;10.87;72.35
49841;BME280;35738;49.890;5.930;2022-09-20T17:46:54;96473.78;;;10.86;72.10
49841;BME280;35738;49.890;5.930;2022-09-20T17:49:22;96487.88;;;10.85;71.97
49841;BME280;35738;49.890;5.930;2022-09-20T17:51:51;96481.88;;;10.82;73.39
49841;BME280;35738;49.890;5.930;2022-09-20T17:54:22;96487.06;;;10.84;72.39
49841;BME280;35738;49.890;5.930;2022-09-20T17:56:51;96486.38;;;10.78;71.85
49841;BME280;35738;49.890;5.930;2022-09-20T17:59:19;96490.22;;;10.69;72.77
49841;BME280;35738;49.890;5.930;2022-09-20T18:01:49;96492.47;;;10.67;73.62
49841;BME280;35738;49.890;5.930;2022-09-20T18:04:17;96494.34;;;10.58;73.82
49841;BME280;35738;49.890;5.930;2022-09-20T18:06:50;96487.88;;;10.54;72.76
49841;BME280;35738;49.890;5.930;2022-09-20T18:09:19;96498.38;;;10.52;73.73
49841;BME280;35738;49.890;5.930;2022-09-20T18:11:48;96507.38;;;10.43;73.94
49841;BME280;35738;49.890;5.930;2022-09-20T18:14:17;96496.69;;;10.42;73.98
49841;BME280;35738;49.890;5.930;2022-09-20T18:16:45;96497.81;;;10.41;74.15
49841;BME280;35738;49.890;5.930;2022-09-20T18:19:12;96509.91;;;10.40;73.83
49841;BME280;35738;49.890;5.930;2022-09-20T18:21:41;96511.56;;;10.41;74.02
49841;BME280;35738;49.890;5.930;2022-09-20T18:24:10;96510.22;;;10.38;75.07
49841;BME280;35738;49.890;5.930;2022-09-20T18:26:38;96514.81;;;10.43;75.30
49841;BME280;35738;49.890;5.930;2022-09-20T18:31:41;96521.31;;;10.47;75.63
49841;BME280;35738;49.890;5.930;2022-09-20T18:34:13;96517.56;;;10.43;76.40